createdAt,value
2019-05-12T00:00:40.886Z,0.00
2019-05-12T00:01:41.116Z,0.00
2019-05-12T00:02:41.331Z,0.00
2019-05-12T00:03:41.529Z,0.00
2019-05-12T00:04:41.711Z,0.00
2019-05-12T00:05:41.896Z,0.00
2019-05-12T00:06:42.082Z,0.00
2019-05-12T00:07:42.299Z,0.00
2019-05-12T00:08:42.509Z,0.00
2019-05-12T00:09:42.731Z,0.00
2019-05-12T00:10:42.942Z,0.00
2019-05-12T00:11:43.129Z,0.00
2019-05-12T00:12:43.294Z,0.00
2019-05-12T00:13:43.529Z,0.00
2019-05-12T00:14:43.686Z,0.00
2019-05-12T00:15:43.868Z,0.00
2019-05-12T00:16:44.032Z,0.00
2019-05-12T00:17:44.160Z,0.00
2019-05-12T00:18:44.342Z,0.00
2019-05-12T00:19:44.504Z,0.00
2019-05-12T00:20:44.657Z,0.00
2019-05-12T00:21:44.823Z,0.00
2019-05-12T00:22:44.982Z,0.00
2019-05-12T00:23:47.180Z,0.00
2019-05-12T00:24:47.760Z,0.00
2019-05-12T00:25:45.425Z,0.00
2019-05-12T00:26:47.629Z,0.00
2019-05-12T00:27:48.273Z,0.00
2019-05-12T00:28:47.817Z,0.00
2019-05-12T00:29:48.393Z,0.00
2019-05-12T00:30:48.596Z,0.00
2019-05-12T00:31:47.774Z,0.00
2019-05-12T00:32:47.885Z,0.00
2019-05-12T00:33:48.107Z,0.00
2019-05-12T00:34:48.065Z,0.00
2019-05-12T00:35:48.463Z,0.00
2019-05-12T00:36:48.695Z,0.00
2019-05-12T00:37:48.723Z,0.00
2019-05-12T00:38:48.882Z,0.00
2019-05-12T00:39:48.175Z,0.00
2019-05-12T00:40:48.205Z,0.00
2019-05-12T00:41:48.397Z,0.00
2019-05-12T00:42:48.591Z,0.00
2019-05-12T00:43:49.770Z,0.00
2019-05-12T00:44:48.912Z,0.00
2019-05-12T00:45:49.108Z,0.00
2019-05-12T00:46:49.271Z,0.00
2019-05-12T00:47:49.433Z,0.00
2019-05-12T00:48:49.610Z,0.00
2019-05-12T00:49:50.397Z,0.00
2019-05-12T00:50:50.969Z,0.00
2019-05-12T00:51:50.102Z,0.00
2019-05-12T00:52:50.282Z,0.00
2019-05-12T00:53:50.451Z,0.00
2019-05-12T00:54:50.629Z,0.00
2019-05-12T00:55:50.821Z,0.00
2019-05-12T00:56:51.000Z,0.00
2019-05-12T00:57:51.164Z,0.00
2019-05-12T00:58:51.313Z,0.00
2019-05-12T00:59:52.495Z,0.00
2019-05-12T01:00:51.643Z,0.00
2019-05-12T01:01:51.865Z,0.00
2019-05-12T01:02:52.055Z,0.00
2019-05-12T01:03:52.263Z,0.00
2019-05-12T01:04:52.435Z,0.00
2019-05-12T01:05:52.631Z,0.00
2019-05-12T01:06:52.876Z,0.00
2019-05-12T01:07:53.083Z,0.00
2019-05-12T01:08:53.286Z,0.00
2019-05-12T01:09:53.469Z,0.00
2019-05-12T01:10:53.638Z,0.00
2019-05-12T01:11:53.877Z,0.00
2019-05-12T01:12:54.044Z,0.00
2019-05-12T01:13:54.230Z,0.00
2019-05-12T01:14:54.368Z,0.00
2019-05-12T01:15:55.532Z,0.00
2019-05-12T01:16:54.689Z,0.00
2019-05-12T01:17:54.889Z,0.00
2019-05-12T01:18:55.050Z,0.00
2019-05-12T01:19:55.230Z,0.00
2019-05-12T01:20:55.422Z,0.00
2019-05-12T01:21:55.597Z,0.00
2019-05-12T01:22:57.907Z,0.00
2019-05-12T01:24:00.522Z,0.00
2019-05-12T01:24:58.043Z,0.00
2019-05-12T01:25:58.586Z,0.00
2019-05-12T01:26:58.218Z,0.00
2019-05-12T01:27:58.909Z,0.00
2019-05-12T01:28:58.102Z,0.00
2019-05-12T01:29:58.126Z,0.00
2019-05-12T01:30:58.273Z,0.00
2019-05-12T01:31:58.621Z,0.00
2019-05-12T01:32:58.602Z,0.00
2019-05-12T01:33:58.560Z,0.00
2019-05-12T01:34:58.775Z,0.00
2019-05-12T01:35:58.623Z,0.00
2019-05-12T01:36:59.103Z,0.00
2019-05-12T01:38:01.347Z,0.00
2019-05-12T01:39:01.885Z,0.00
2019-05-12T01:40:00.072Z,0.00
2019-05-12T01:40:59.732Z,0.00
2019-05-12T01:41:58.856Z,0.00
2019-05-12T01:42:59.002Z,0.00
2019-05-12T01:43:59.157Z,0.00
2019-05-12T01:44:59.303Z,0.00
2019-05-12T01:45:59.436Z,0.00
2019-05-12T01:46:59.582Z,0.00
2019-05-12T01:47:59.724Z,0.00
2019-05-12T01:48:59.888Z,0.00
2019-05-12T01:50:00.024Z,0.00
2019-05-12T01:51:00.151Z,0.00
2019-05-12T01:52:00.317Z,0.00
2019-05-12T01:53:00.451Z,0.00
2019-05-12T01:54:10.700Z,0.00
2019-05-12T01:55:02.767Z,0.00
2019-05-12T01:56:00.864Z,0.00
2019-05-12T01:57:01.004Z,0.00
2019-05-12T01:58:01.154Z,0.00
2019-05-12T01:59:01.350Z,0.00
2019-05-12T02:00:01.508Z,0.00
2019-05-12T02:01:02.999Z,0.00
2019-05-12T02:02:02.809Z,0.00
2019-05-12T02:03:01.938Z,0.00
2019-05-12T02:04:02.116Z,0.00
2019-05-12T02:05:02.276Z,0.00
2019-05-12T02:06:02.459Z,0.00
2019-05-12T02:07:02.600Z,0.00
2019-05-12T02:08:02.761Z,0.00
2019-05-12T02:09:02.918Z,0.00
2019-05-12T02:10:03.096Z,0.00
2019-05-12T02:11:03.252Z,0.00
2019-05-12T02:12:03.375Z,0.00
2019-05-12T02:13:03.493Z,0.00
2019-05-12T02:14:03.637Z,0.00
2019-05-12T02:15:03.794Z,0.00
2019-05-12T02:16:03.960Z,0.00
2019-05-12T02:17:04.205Z,0.00
2019-05-12T02:18:04.463Z,0.00
2019-05-12T02:19:04.607Z,0.00
2019-05-12T02:20:04.785Z,0.00
2019-05-12T02:21:04.928Z,0.00
2019-05-12T02:22:05.090Z,0.00
2019-05-12T02:23:05.253Z,0.00
2019-05-12T02:24:07.591Z,0.00
2019-05-12T02:25:07.945Z,0.00
2019-05-12T02:26:08.093Z,0.00
2019-05-12T02:27:08.170Z,0.00
2019-05-12T02:28:06.028Z,0.00
2019-05-12T02:29:07.862Z,0.00
2019-05-12T02:30:09.881Z,0.00
2019-05-12T02:31:09.263Z,0.00
2019-05-12T02:32:06.772Z,0.00
2019-05-12T02:33:06.957Z,0.00
2019-05-12T02:34:07.118Z,0.00
2019-05-12T02:35:07.277Z,0.00
2019-05-12T02:36:07.411Z,0.00
2019-05-12T02:37:07.609Z,0.00
2019-05-12T02:38:07.740Z,0.00
2019-05-12T02:39:07.889Z,0.00
2019-05-12T02:40:08.117Z,0.00
2019-05-12T02:41:08.269Z,0.00
2019-05-12T02:42:08.442Z,0.00
2019-05-12T02:43:08.610Z,0.00
2019-05-12T02:44:08.773Z,0.00
2019-05-12T02:45:08.918Z,0.00
2019-05-12T02:46:09.092Z,0.00
2019-05-12T02:47:09.250Z,0.00
2019-05-12T02:48:09.416Z,0.00
2019-05-12T02:49:09.590Z,0.00
2019-05-12T02:50:09.729Z,0.00
2019-05-12T02:51:09.912Z,0.00
2019-05-12T02:52:10.058Z,0.00
2019-05-12T02:53:14.229Z,0.00
2019-05-12T02:54:10.433Z,0.00
2019-05-12T02:55:10.602Z,0.00
2019-05-12T02:56:10.821Z,0.00
2019-05-12T02:57:10.973Z,0.00
2019-05-12T02:58:11.133Z,0.00
2019-05-12T02:59:11.304Z,0.00
2019-05-12T03:00:11.476Z,0.00
2019-05-12T03:01:11.655Z,0.00
2019-05-12T03:02:14.162Z,0.00
2019-05-12T03:03:14.765Z,0.00
2019-05-12T03:04:14.490Z,0.00
2019-05-12T03:05:14.856Z,0.00
2019-05-12T03:06:15.119Z,0.00
2019-05-12T03:07:15.366Z,0.00
2019-05-12T03:08:15.357Z,0.00
2019-05-12T03:09:15.095Z,0.00
2019-05-12T03:10:14.669Z,0.00
2019-05-12T03:11:14.901Z,0.00
2019-05-12T03:12:14.696Z,0.00
2019-05-12T03:13:14.975Z,0.00
2019-05-12T03:14:15.618Z,4.00
2019-05-12T03:15:15.410Z,4.00
2019-05-12T03:16:15.166Z,4.00
2019-05-12T03:17:15.651Z,0.00
2019-05-12T03:18:14.896Z,0.00
2019-05-12T03:19:15.287Z,4.00
2019-05-12T03:20:16.098Z,0.00
2019-05-12T03:21:15.471Z,4.00
2019-05-12T03:22:16.438Z,4.00
2019-05-12T03:23:19.341Z,8.00
2019-05-12T03:24:17.578Z,8.00
2019-05-12T03:25:24.769Z,8.00
2019-05-12T03:26:18.179Z,8.00
2019-05-12T03:27:17.702Z,8.00
2019-05-12T03:28:17.515Z,8.00
2019-05-12T03:29:16.643Z,8.00
2019-05-12T03:30:19.496Z,12.00
2019-05-12T03:31:23.620Z,12.00
2019-05-12T03:32:19.200Z,16.00
2019-05-12T03:33:19.436Z,16.00
2019-05-12T03:34:20.066Z,16.00
2019-05-12T03:35:18.703Z,20.00
2019-05-12T03:36:18.622Z,20.00
2019-05-12T03:37:18.636Z,24.00
2019-05-12T03:38:19.317Z,28.00
2019-05-12T03:39:18.467Z,32.00
2019-05-12T03:40:18.635Z,36.00
2019-05-12T03:41:18.776Z,40.00
2019-05-12T03:42:18.937Z,44.00
2019-05-12T03:43:19.180Z,52.00
2019-05-12T03:44:19.388Z,56.00
2019-05-12T03:45:19.557Z,68.00
2019-05-12T03:46:19.706Z,76.00
2019-05-12T03:47:19.857Z,84.00
2019-05-12T03:48:20.073Z,92.00
2019-05-12T03:49:20.285Z,100.00
2019-05-12T03:50:20.423Z,104.00
2019-05-12T03:51:20.595Z,108.00
2019-05-12T03:52:24.385Z,116.00
2019-05-12T03:53:24.792Z,124.00
2019-05-12T03:54:24.453Z,132.00
2019-05-12T03:55:31.792Z,144.00
2019-05-12T03:56:25.851Z,152.00
2019-05-12T03:57:21.658Z,156.00
2019-05-12T03:58:21.830Z,168.00
2019-05-12T03:59:25.343Z,172.00
2019-05-12T04:00:24.758Z,180.00
2019-05-12T04:01:25.557Z,184.00
2019-05-12T04:02:24.969Z,188.00
2019-05-12T04:03:24.727Z,192.00
2019-05-12T04:04:24.539Z,204.00
2019-05-12T04:05:24.508Z,212.00
2019-05-12T04:06:24.735Z,212.00
2019-05-12T04:07:24.542Z,216.00
2019-05-12T04:08:24.633Z,220.00
2019-05-12T04:09:24.803Z,228.00
2019-05-12T04:10:24.782Z,236.00
2019-05-12T04:11:25.235Z,248.00
2019-05-12T04:12:25.532Z,260.00
2019-05-12T04:13:26.540Z,264.00
2019-05-12T04:14:25.583Z,272.00
2019-05-12T04:15:25.582Z,284.00
2019-05-12T04:16:26.051Z,304.00
2019-05-12T04:17:25.207Z,328.00
2019-05-12T04:18:25.365Z,348.00
2019-05-12T04:19:25.526Z,364.00
2019-05-12T04:20:25.764Z,384.00
2019-05-12T04:21:25.819Z,408.00
2019-05-12T04:22:26.006Z,404.00
2019-05-12T04:23:26.164Z,408.00
2019-05-12T04:24:26.332Z,428.00
2019-05-12T04:25:44.729Z,448.00
2019-05-12T04:26:27.786Z,468.00
2019-05-12T04:27:26.956Z,476.00
2019-05-12T04:28:27.126Z,520.00
2019-05-12T04:29:27.311Z,544.00
2019-05-12T04:30:27.458Z,580.00
2019-05-12T04:31:27.608Z,580.00
2019-05-12T04:32:27.743Z,616.00
2019-05-12T04:33:28.896Z,664.00
2019-05-12T04:34:28.140Z,652.00
2019-05-12T04:35:29.283Z,644.00
2019-05-12T04:36:28.423Z,680.00
2019-05-12T04:37:28.601Z,696.00
2019-05-12T04:38:28.723Z,724.00
2019-05-12T04:39:28.863Z,788.00
2019-05-12T04:40:29.005Z,844.00
2019-05-12T04:41:29.146Z,844.00
2019-05-12T04:42:29.290Z,852.00
2019-05-12T04:43:29.427Z,824.00
2019-05-12T04:44:29.565Z,864.00
2019-05-12T04:45:29.762Z,880.00
2019-05-12T04:46:29.915Z,904.00
2019-05-12T04:47:30.087Z,988.00
2019-05-12T04:48:30.264Z,1044.00
2019-05-12T04:49:30.427Z,1048.00
2019-05-12T04:50:30.594Z,1008.00
2019-05-12T04:51:30.780Z,1064.00
2019-05-12T04:52:30.961Z,1120.00
2019-05-12T04:53:31.117Z,1076.00
2019-05-12T04:54:31.310Z,1048.00
2019-05-12T04:55:31.486Z,1052.00
2019-05-12T04:56:35.403Z,1080.00
2019-05-12T04:57:34.692Z,1108.00
2019-05-12T04:58:35.031Z,1160.00
2019-05-12T04:59:34.491Z,1196.00
2019-05-12T05:00:34.825Z,1244.00
2019-05-12T05:01:34.625Z,1304.00
2019-05-12T05:02:36.504Z,1396.00
2019-05-12T05:03:34.971Z,1340.00
2019-05-12T05:04:34.771Z,1412.00
2019-05-12T05:05:35.610Z,1436.00
2019-05-12T05:06:34.651Z,1432.00
2019-05-12T05:07:35.965Z,1436.00
2019-05-12T05:08:35.083Z,1452.00
2019-05-12T05:09:34.980Z,1436.00
2019-05-12T05:10:35.324Z,1500.00
2019-05-12T05:11:34.682Z,1432.00
2019-05-12T05:12:35.660Z,1448.00
2019-05-12T05:13:38.815Z,1548.00
2019-05-12T05:14:36.074Z,1544.00
2019-05-12T05:15:35.543Z,1508.00
2019-05-12T05:16:35.448Z,1428.00
2019-05-12T05:17:35.600Z,1476.00
2019-05-12T05:18:35.784Z,1508.00
2019-05-12T05:19:35.948Z,1528.00
2019-05-12T05:20:36.150Z,1568.00
2019-05-12T05:21:36.328Z,1528.00
2019-05-12T05:22:38.197Z,1568.00
2019-05-12T05:23:37.686Z,1684.00
2019-05-12T05:24:36.813Z,1680.00
2019-05-12T05:25:36.982Z,1604.00
2019-05-12T05:26:37.511Z,1640.00
2019-05-12T05:27:38.368Z,1716.00
2019-05-12T05:28:37.601Z,1748.00
2019-05-12T05:29:37.750Z,1808.00
2019-05-12T05:30:37.917Z,2064.00
2019-05-12T05:31:38.076Z,2164.00
2019-05-12T05:32:38.230Z,2188.00
2019-05-12T05:33:38.385Z,2176.00
2019-05-12T05:34:38.530Z,2056.00
2019-05-12T05:35:39.813Z,2060.00
2019-05-12T05:36:39.907Z,2140.00
2019-05-12T05:37:41.471Z,2136.00
2019-05-12T05:38:40.213Z,2156.00
2019-05-12T05:39:47.601Z,2152.00
2019-05-12T05:40:43.381Z,2124.00
2019-05-12T05:41:48.884Z,2076.00
2019-05-12T05:42:43.899Z,2228.00
2019-05-12T05:43:40.107Z,2212.00
2019-05-12T05:44:40.263Z,2284.00
2019-05-12T05:45:40.407Z,2408.00
2019-05-12T05:46:47.708Z,2528.00
2019-05-12T05:47:44.230Z,2644.00
2019-05-12T05:48:40.905Z,2700.00
2019-05-12T05:49:43.322Z,2488.00
2019-05-12T05:50:43.705Z,2308.00
2019-05-12T05:51:46.667Z,2268.00
2019-05-12T05:52:43.887Z,2368.00
2019-05-12T05:53:44.028Z,2488.00
2019-05-12T05:54:43.887Z,2480.00
2019-05-12T05:55:44.098Z,2272.00
2019-05-12T05:56:48.458Z,2516.00
2019-05-12T05:57:44.565Z,2336.00
2019-05-12T05:58:47.103Z,2388.00
2019-05-12T05:59:44.859Z,2308.00
2019-05-12T06:00:44.058Z,2276.00
2019-05-12T06:01:47.002Z,2240.00
2019-05-12T06:02:45.528Z,2116.00
2019-05-12T06:03:44.744Z,1916.00
2019-05-12T06:04:45.431Z,1960.00
2019-05-12T06:05:46.194Z,2108.00
2019-05-12T06:06:50.899Z,2352.00
2019-05-12T06:07:46.665Z,2480.00
2019-05-12T06:08:44.773Z,2668.00
2019-05-12T06:09:44.897Z,2840.00
2019-05-12T06:10:45.027Z,2928.00
2019-05-12T06:11:45.178Z,2884.00
2019-05-12T06:12:50.527Z,2812.00
2019-05-12T06:13:47.485Z,2640.00
2019-05-12T06:14:46.702Z,2252.00
2019-05-12T06:15:47.836Z,2340.00
2019-05-12T06:16:46.075Z,2212.00
2019-05-12T06:17:46.301Z,2104.00
2019-05-12T06:18:46.477Z,2344.00
2019-05-12T06:19:46.685Z,2616.00
2019-05-12T06:20:46.861Z,2296.00
2019-05-12T06:21:47.001Z,2148.00
2019-05-12T06:22:48.526Z,2308.00
2019-05-12T06:23:49.275Z,2784.00
2019-05-12T06:24:49.112Z,3060.00
2019-05-12T06:25:51.595Z,3064.00
2019-05-12T06:26:57.678Z,2864.00
2019-05-12T06:27:51.185Z,2784.00
2019-05-12T06:28:50.138Z,2864.00
2019-05-12T06:29:54.461Z,3196.00
2019-05-12T06:30:50.156Z,3460.00
2019-05-12T06:31:49.619Z,3540.00
2019-05-12T06:32:51.780Z,3568.00
2019-05-12T06:33:49.970Z,3236.00
2019-05-12T06:34:50.877Z,3200.00
2019-05-12T06:35:51.309Z,3148.00
2019-05-12T06:36:49.463Z,3316.00
2019-05-12T06:37:57.731Z,3328.00
2019-05-12T06:38:53.970Z,3296.00
2019-05-12T06:39:50.971Z,3172.00
2019-05-12T06:40:54.336Z,3092.00
2019-05-12T06:41:50.399Z,2980.00
2019-05-12T06:42:54.171Z,3264.00
2019-05-12T06:43:54.121Z,3132.00
2019-05-12T06:44:54.897Z,2972.00
2019-05-12T06:45:54.459Z,3152.00
2019-05-12T06:46:53.402Z,3536.00
2019-05-12T06:47:56.042Z,3512.00
2019-05-12T06:48:54.363Z,3496.00
2019-05-12T06:49:56.467Z,3296.00
2019-05-12T06:50:53.762Z,3420.00
2019-05-12T06:52:01.289Z,3492.00
2019-05-12T06:52:53.188Z,3196.00
2019-05-12T06:53:53.450Z,3252.00
2019-05-12T06:54:56.627Z,2916.00
2019-05-12T06:55:54.107Z,3092.00
2019-05-12T06:56:57.823Z,3628.00
2019-05-12T06:57:55.176Z,4016.00
2019-05-12T06:58:53.571Z,3952.00
2019-05-12T06:59:55.189Z,3948.00
2019-05-12T07:00:54.862Z,3796.00
2019-05-12T07:01:56.112Z,3680.00
2019-05-12T07:02:56.255Z,3560.00
2019-05-12T07:03:55.360Z,3656.00
2019-05-12T07:04:59.390Z,4268.00
2019-05-12T07:05:56.768Z,4036.00
2019-05-12T07:07:00.236Z,3744.00
2019-05-12T07:07:57.045Z,3216.00
2019-05-12T07:09:03.538Z,3044.00
2019-05-12T07:10:10.376Z,3236.00
2019-05-12T07:11:01.723Z,3388.00
2019-05-12T07:12:02.717Z,3488.00
2019-05-12T07:13:01.692Z,3584.00
2019-05-12T07:14:04.475Z,3304.00
2019-05-12T07:14:58.877Z,3212.00
2019-05-12T07:15:57.407Z,3660.00
2019-05-12T07:17:01.571Z,4420.00
2019-05-12T07:17:58.673Z,4660.00
2019-05-12T07:18:56.905Z,4932.00
2019-05-12T07:19:58.404Z,4868.00
2019-05-12T07:20:58.262Z,4808.00
2019-05-12T07:22:00.084Z,4472.00
2019-05-12T07:22:58.589Z,4268.00
2019-05-12T07:24:00.422Z,4432.00
2019-05-12T07:24:59.989Z,4944.00
2019-05-12T07:25:58.136Z,4972.00
2019-05-12T07:27:04.149Z,5060.00
2019-05-12T07:28:04.175Z,4744.00
2019-05-12T07:29:00.627Z,3908.00
2019-05-12T07:29:58.755Z,3672.00
2019-05-12T07:30:58.947Z,4456.00
2019-05-12T07:31:59.124Z,4432.00
2019-05-12T07:33:01.160Z,4580.00
2019-05-12T07:34:04.237Z,4508.00
2019-05-12T07:35:00.677Z,4564.00
2019-05-12T07:36:01.305Z,4628.00
2019-05-12T07:37:00.937Z,4188.00
2019-05-12T07:38:00.336Z,3904.00
2019-05-12T07:39:04.154Z,4100.00
2019-05-12T07:40:04.629Z,4280.00
2019-05-12T07:41:05.595Z,4000.00
2019-05-12T07:42:03.632Z,3876.00
2019-05-12T07:43:00.995Z,3592.00
2019-05-12T07:44:03.424Z,3568.00
2019-05-12T07:45:03.769Z,4176.00
2019-05-12T07:46:06.693Z,4456.00
2019-05-12T07:47:03.807Z,4684.00
2019-05-12T07:48:08.107Z,4568.00
2019-05-12T07:49:04.086Z,4604.00
2019-05-12T07:50:04.483Z,4320.00
2019-05-12T07:51:04.193Z,4024.00
2019-05-12T07:52:03.746Z,4292.00
2019-05-12T07:53:04.319Z,5220.00
2019-05-12T07:54:04.143Z,5352.00
2019-05-12T07:55:04.381Z,5988.00
2019-05-12T07:56:04.309Z,5648.00
2019-05-12T07:57:11.464Z,6292.00
2019-05-12T07:58:13.673Z,7304.00
2019-05-12T07:59:05.771Z,7348.00
2019-05-12T08:00:03.888Z,7364.00
2019-05-12T08:01:07.143Z,9116.00
2019-05-12T08:02:05.201Z,9620.00
2019-05-12T08:03:14.360Z,9180.00
2019-05-12T08:04:06.504Z,8448.00
2019-05-12T08:05:04.618Z,7580.00
2019-05-12T08:06:04.831Z,7148.00
2019-05-12T08:07:05.000Z,6604.00
2019-05-12T08:08:09.573Z,5948.00
2019-05-12T08:09:07.355Z,6748.00
2019-05-12T08:10:07.168Z,5332.00
2019-05-12T08:11:07.641Z,5216.00
2019-05-12T08:12:09.584Z,4788.00
2019-05-12T08:13:07.991Z,4604.00
2019-05-12T08:14:06.202Z,4504.00
2019-05-12T08:15:09.607Z,4840.00
2019-05-12T08:16:07.538Z,4892.00
2019-05-12T08:17:11.025Z,4920.00
2019-05-12T08:18:08.862Z,5312.00
2019-05-12T08:19:08.601Z,5864.00
2019-05-12T08:20:08.321Z,6168.00
2019-05-12T08:21:07.538Z,6536.00
2019-05-12T08:22:07.604Z,6212.00
2019-05-12T08:23:10.308Z,5972.00
2019-05-12T08:24:09.019Z,6232.00
2019-05-12T08:25:08.211Z,6328.00
2019-05-12T08:26:11.974Z,7468.00
2019-05-12T08:27:10.599Z,7700.00
2019-05-12T08:28:16.245Z,7244.00
2019-05-12T08:29:17.054Z,10200.00
2019-05-12T08:30:13.638Z,50688.00
2019-05-12T08:31:09.345Z,40416.00
2019-05-12T08:32:10.013Z,35648.00
2019-05-12T08:33:11.647Z,11872.00
2019-05-12T08:34:09.800Z,18240.00
2019-05-12T08:35:10.104Z,30368.00
2019-05-12T08:36:11.713Z,25184.00
2019-05-12T08:37:13.820Z,5032.00
2019-05-12T08:38:10.592Z,5660.00
2019-05-12T08:39:11.954Z,5052.00
2019-05-12T08:40:15.390Z,4284.00
2019-05-12T08:41:11.075Z,3956.00
2019-05-12T08:42:11.288Z,3960.00
2019-05-12T08:43:11.503Z,4300.00
2019-05-12T08:44:13.537Z,4128.00
2019-05-12T08:45:15.276Z,3796.00
2019-05-12T08:46:15.724Z,4080.00
2019-05-12T08:47:15.033Z,4164.00
2019-05-12T08:48:17.009Z,4656.00
2019-05-12T08:49:14.623Z,6500.00
2019-05-12T08:50:13.877Z,9368.00
2019-05-12T08:51:14.547Z,22368.00
2019-05-12T08:52:14.278Z,13856.00
2019-05-12T08:53:20.350Z,11704.00
2019-05-12T08:54:15.437Z,12696.00
2019-05-12T08:55:16.366Z,17216.00
2019-05-12T08:56:19.236Z,13600.00
2019-05-12T08:57:16.015Z,17984.00
2019-05-12T08:58:29.605Z,24160.00
2019-05-12T08:59:18.503Z,23744.00
2019-05-12T09:00:15.468Z,7252.00
2019-05-12T09:01:14.628Z,9604.00
2019-05-12T09:02:14.892Z,7900.00
2019-05-12T09:03:14.925Z,7616.00
2019-05-12T09:04:18.264Z,7032.00
2019-05-12T09:05:16.364Z,7316.00
2019-05-12T09:06:19.478Z,7436.00
2019-05-12T09:07:16.775Z,6828.00
2019-05-12T09:08:15.883Z,6916.00
2019-05-12T09:09:16.077Z,6484.00
2019-05-12T09:10:16.267Z,6660.00
2019-05-12T09:11:16.476Z,6516.00
2019-05-12T09:12:16.650Z,5924.00
2019-05-12T09:13:16.857Z,5960.00
2019-05-12T09:14:17.053Z,5716.00
2019-05-12T09:15:17.248Z,5576.00
2019-05-12T09:16:17.440Z,5988.00
2019-05-12T09:17:17.636Z,8556.00
2019-05-12T09:18:19.039Z,7816.00
2019-05-12T09:19:23.785Z,7736.00
2019-05-12T09:20:20.155Z,6044.00
2019-05-12T09:21:18.315Z,6064.00
2019-05-12T09:22:20.849Z,5876.00
2019-05-12T09:23:19.668Z,6128.00
2019-05-12T09:24:21.999Z,6640.00
2019-05-12T09:25:23.736Z,7128.00
2019-05-12T09:26:26.680Z,7708.00
2019-05-12T09:27:20.341Z,8476.00
2019-05-12T09:28:19.516Z,7784.00
2019-05-12T09:29:19.767Z,6996.00
2019-05-12T09:30:19.955Z,7188.00
2019-05-12T09:31:25.452Z,25696.00
2019-05-12T09:32:23.466Z,7024.00
2019-05-12T09:33:21.450Z,7456.00
2019-05-12T09:34:23.482Z,7656.00
2019-05-12T09:35:23.582Z,7860.00
2019-05-12T09:36:21.772Z,8324.00
2019-05-12T09:37:24.054Z,20960.00
2019-05-12T09:38:23.261Z,22080.00
2019-05-12T09:39:23.482Z,42528.00
2019-05-12T09:40:24.658Z,66208.00
2019-05-12T09:41:23.926Z,12784.00
2019-05-12T09:42:25.643Z,13164.00
2019-05-12T09:43:24.219Z,14132.00
2019-05-12T09:44:26.536Z,14432.00
2019-05-12T09:45:24.512Z,28160.00
2019-05-12T09:46:23.326Z,53152.00
2019-05-12T09:47:27.590Z,39104.00
2019-05-12T09:48:24.704Z,8524.00
2019-05-12T09:49:31.428Z,16448.00
2019-05-12T09:50:25.530Z,43136.00
2019-05-12T09:51:23.912Z,10084.00
2019-05-12T09:52:27.188Z,10348.00
2019-05-12T09:53:25.142Z,11436.00
2019-05-12T09:54:27.837Z,14672.00
2019-05-12T09:55:26.510Z,7664.00
2019-05-12T09:56:24.635Z,7964.00
2019-05-12T09:57:24.847Z,16160.00
2019-05-12T09:58:27.301Z,17728.00
2019-05-12T09:59:26.221Z,19840.00
2019-05-12T10:00:30.078Z,53280.00
2019-05-12T10:01:29.309Z,67072.00
2019-05-12T10:02:27.757Z,42656.00
2019-05-12T10:03:25.895Z,6076.00
2019-05-12T10:04:26.101Z,5948.00
2019-05-12T10:05:30.453Z,6552.00
2019-05-12T10:06:27.510Z,5376.00
2019-05-12T10:07:26.647Z,47200.00
2019-05-12T10:08:29.427Z,50720.00
2019-05-12T10:09:29.067Z,18944.00
2019-05-12T10:10:29.023Z,12028.00
2019-05-12T10:11:29.373Z,7664.00
2019-05-12T10:12:29.881Z,7496.00
2019-05-12T10:13:30.262Z,8016.00
2019-05-12T10:14:28.874Z,8620.00
2019-05-12T10:15:28.739Z,8620.00
2019-05-12T10:16:29.162Z,7624.00
2019-05-12T10:17:30.208Z,18208.00
2019-05-12T10:18:29.427Z,16224.00
2019-05-12T10:19:28.604Z,16736.00
2019-05-12T10:20:29.122Z,15360.00
2019-05-12T10:21:30.927Z,14912.00
2019-05-12T10:22:29.995Z,53664.00
2019-05-12T10:23:31.335Z,15456.00
2019-05-12T10:24:34.445Z,51744.00
2019-05-12T10:25:33.929Z,49824.00
2019-05-12T10:26:30.866Z,43392.00
2019-05-12T10:27:31.960Z,10904.00
2019-05-12T10:28:31.147Z,9064.00
2019-05-12T10:29:32.388Z,8344.00
2019-05-12T10:30:30.517Z,8544.00
2019-05-12T10:31:35.649Z,8164.00
2019-05-12T10:32:34.282Z,7788.00
2019-05-12T10:33:31.037Z,7668.00
2019-05-12T10:34:36.018Z,8692.00
2019-05-12T10:35:35.114Z,8240.00
2019-05-12T10:36:33.643Z,10784.00
2019-05-12T10:37:31.748Z,12376.00
2019-05-12T10:38:34.226Z,9136.00
2019-05-12T10:39:33.440Z,7284.00
2019-05-12T10:40:33.866Z,6896.00
2019-05-12T10:41:34.250Z,21568.00
2019-05-12T10:42:33.751Z,9308.00
2019-05-12T10:43:34.281Z,12808.00
2019-05-12T10:44:39.258Z,23680.00
2019-05-12T10:45:35.416Z,71264.00
2019-05-12T10:46:33.579Z,70016.00
2019-05-12T10:47:34.356Z,70176.00
2019-05-12T10:48:34.951Z,69088.00
2019-05-12T10:49:34.091Z,70048.00
2019-05-12T10:50:34.428Z,0.00
2019-05-12T10:51:34.501Z,66976.00
2019-05-12T10:52:38.854Z,65504.00
2019-05-12T10:53:34.919Z,63232.00
2019-05-12T10:54:35.147Z,36640.00
2019-05-12T10:55:35.334Z,24800.00
2019-05-12T10:56:35.546Z,68096.00
2019-05-12T10:57:35.764Z,12812.00
2019-05-12T10:58:36.011Z,9604.00
2019-05-12T10:59:38.915Z,8452.00
2019-05-12T11:00:38.306Z,9696.00
2019-05-12T11:01:38.360Z,9324.00
2019-05-12T11:02:38.669Z,8852.00
2019-05-12T11:03:36.855Z,8428.00
2019-05-12T11:04:40.934Z,6824.00
2019-05-12T11:05:38.154Z,7580.00
2019-05-12T11:06:39.696Z,9212.00
2019-05-12T11:07:39.493Z,7344.00
2019-05-12T11:08:41.264Z,6928.00
2019-05-12T11:09:39.829Z,10996.00
2019-05-12T11:10:37.992Z,15008.00
2019-05-12T11:11:42.374Z,61344.00
2019-05-12T11:12:40.403Z,52416.00
2019-05-12T11:13:40.390Z,54528.00
2019-05-12T11:14:40.761Z,60640.00
2019-05-12T11:15:39.415Z,64992.00
2019-05-12T11:16:42.516Z,68256.00
2019-05-12T11:17:40.394Z,40256.00
2019-05-12T11:18:40.437Z,12376.00
2019-05-12T11:19:40.633Z,29024.00
2019-05-12T11:20:41.736Z,71520.00
2019-05-12T11:21:40.879Z,12404.00
2019-05-12T11:22:40.048Z,7220.00
2019-05-12T11:23:40.221Z,8496.00
2019-05-12T11:24:44.209Z,10352.00
2019-05-12T11:25:40.607Z,7568.00
2019-05-12T11:26:43.112Z,7060.00
2019-05-12T11:27:40.925Z,7572.00
2019-05-12T11:28:41.049Z,8376.00
2019-05-12T11:29:46.245Z,10680.00
2019-05-12T11:30:43.766Z,11708.00
2019-05-12T11:31:44.084Z,15328.00
2019-05-12T11:32:44.156Z,10876.00
2019-05-12T11:33:43.603Z,10968.00
2019-05-12T11:34:43.826Z,8880.00
2019-05-12T11:35:43.522Z,10432.00
2019-05-12T11:36:43.845Z,59488.00
2019-05-12T11:37:43.520Z,64032.00
2019-05-12T11:38:44.408Z,65440.00
2019-05-12T11:39:46.886Z,61600.00
2019-05-12T11:40:43.978Z,58176.00
2019-05-12T11:41:44.313Z,34656.00
2019-05-12T11:42:48.400Z,45920.00
2019-05-12T11:43:45.611Z,11476.00
2019-05-12T11:44:44.305Z,9392.00
2019-05-12T11:45:44.957Z,10236.00
2019-05-12T11:46:44.313Z,9216.00
2019-05-12T11:47:45.239Z,11552.00
2019-05-12T11:48:46.297Z,10576.00
2019-05-12T11:49:46.583Z,10460.00
2019-05-12T11:50:47.830Z,10052.00
2019-05-12T11:51:46.853Z,20768.00
2019-05-12T11:52:45.948Z,9336.00
2019-05-12T11:53:46.316Z,8324.00
2019-05-12T11:54:47.223Z,70432.00
2019-05-12T11:55:47.592Z,66560.00
2019-05-12T11:56:49.183Z,59936.00
2019-05-12T11:57:46.865Z,60096.00
2019-05-12T11:58:47.431Z,57280.00
2019-05-12T11:59:59.168Z,56352.00
2019-05-12T12:00:48.478Z,61216.00
2019-05-12T12:01:49.757Z,42880.00
2019-05-12T12:02:47.859Z,48960.00
2019-05-12T12:03:46.992Z,50592.00
2019-05-12T12:04:47.129Z,16096.00
2019-05-12T12:05:47.333Z,27680.00
2019-05-12T12:06:47.511Z,65792.00
2019-05-12T12:07:51.261Z,65504.00
2019-05-12T12:08:49.931Z,10872.00
2019-05-12T12:09:49.493Z,8204.00
2019-05-12T12:10:50.159Z,7284.00
2019-05-12T12:11:56.731Z,7060.00
2019-05-12T12:12:49.538Z,54880.00
2019-05-12T12:13:49.649Z,33760.00
2019-05-12T12:14:50.299Z,8432.00
2019-05-12T12:15:50.016Z,13504.00
2019-05-12T12:16:50.451Z,8576.00
2019-05-12T12:17:50.317Z,8708.00
2019-05-12T12:18:56.100Z,8792.00
2019-05-12T12:19:54.270Z,8488.00
2019-05-12T12:20:56.653Z,10016.00
2019-05-12T12:21:50.986Z,8480.00
2019-05-12T12:22:51.185Z,7724.00
2019-05-12T12:23:50.369Z,8240.00
2019-05-12T12:24:50.544Z,8632.00
2019-05-12T12:25:50.767Z,9072.00